Time;durP1;ratioP1;P1;durP2;ratioP2;P2;SDS_P1;SDS_P2;PMS_P1;PMS_P2;Temp;Humidity;BMP_temperature;BMP_pressure;BME280_temperature;BME280_humidity;BME280_pressure;Samples;Min_cycle;Max_cycle;Signal;HPM_P1;HPM_P2
2022/05/17 00:02:11;;;;;;;3.73;3.43;;;16.90;99.90;;;;;;5076896;28;20941;-54
2022/05/17 00:04:38;;;;;;;4.77;3.60;;;16.90;99.90;;;;;;5077118;28;20444;-55
2022/05/17 00:07:07;;;;;;;5.93;4.20;;;16.90;99.90;;;;;;5076753;28;20432;-55
2022/05/17 00:09:34;;;;;;;4.60;4.20;;;16.90;99.90;;;;;;5076977;28;20551;-55
2022/05/17 00:12:03;;;;;;;4.30;3.60;;;16.90;99.90;;;;;;5076484;28;20797;-55
2022/05/17 00:14:32;;;;;;;4.60;4.20;;;16.70;99.90;;;;;;5076448;28;20479;-55
2022/05/17 00:17:00;;;;;;;5.17;3.73;;;16.60;99.90;;;;;;5076729;28;20482;-55
2022/05/17 00:19:28;;;;;;;7.87;3.77;;;16.60;99.90;;;;;;5076679;28;20466;-55
2022/05/17 00:21:55;;;;;;;4.53;4.13;;;16.60;99.90;;;;;;5076651;28;20497;-55
2022/05/17 00:24:26;;;;;;;4.43;3.77;;;16.60;99.90;;;;;;5076577;28;20448;-55
2022/05/17 00:26:53;;;;;;;5.10;3.63;;;16.60;99.90;;;;;;5077865;28;20441;-55
2022/05/17 00:29:21;;;;;;;7.60;5.00;;;16.50;99.90;;;;;;5076524;28;20464;-55
2022/05/17 00:31:48;;;;;;;4.53;4.00;;;16.40;99.90;;;;;;5076397;28;20935;-54
2022/05/17 00:34:16;;;;;;;3.83;3.50;;;16.40;99.90;;;;;;5076171;28;20476;-54
2022/05/17 00:36:43;;;;;;;5.10;4.67;;;16.50;99.90;;;;;;5076379;28;20448;-54
2022/05/17 00:39:10;;;;;;;4.60;4.20;;;16.50;99.90;;;;;;5076497;28;20475;-54
2022/05/17 00:41:39;;;;;;;5.77;4.40;;;16.50;99.90;;;;;;5075809;28;20562;-55
2022/05/17 00:46:57;;;;;;;4.47;4.03;;;16.30;99.90;;;;;;5076323;28;20918;-55
2022/05/17 00:49:29;;;;;;;6.33;4.33;;;16.40;99.90;;;;;;5076149;28;20468;-55
2022/05/17 00:52:01;;;;;;;5.83;3.90;;;16.40;99.90;;;;;;5076376;28;20431;-55
2022/05/17 00:54:30;;;;;;;5.33;3.80;;;16.40;99.90;;;;;;5075819;28;20464;-55
2022/05/17 00:57:05;;;;;;;5.67;3.60;;;16.30;99.90;;;;;;5076212;28;20536;-55
2022/05/17 00:59:34;;;;;;;5.03;4.13;;;16.30;99.90;;;;;;5074604;28;20452;-55
2022/05/17 01:02:01;;;;;;;5.67;4.73;;;16.20;99.90;;;;;;5076192;28;20452;-54
2022/05/17 01:04:29;;;;;;;5.30;4.27;;;16.10;99.90;;;;;;5075545;28;20961;-54
2022/05/17 01:07:01;;;;;;;4.90;4.30;;;16.10;99.90;;;;;;5075886;28;20898;-54
2022/05/17 01:09:29;;;;;;;7.50;3.60;;;16.20;99.90;;;;;;5075491;28;20490;-54
2022/05/17 01:11:56;;;;;;;6.97;4.43;;;16.20;99.90;;;;;;5075410;28;20890;-55
2022/05/17 01:17:10;;;;;;;5.67;3.80;;;16.20;99.90;;;;;;5075509;28;20474;-54
2022/05/17 01:19:41;;;;;;;5.83;4.20;;;16.20;99.90;;;;;;5075209;28;20958;-55
2022/05/17 01:22:10;;;;;;;7.63;3.87;;;16.10;99.90;;;;;;5076299;28;20558;-55
2022/05/17 01:24:37;;;;;;;5.60;3.73;;;16.20;99.90;;;;;;5075184;28;20476;-56
2022/05/17 01:27:11;;;;;;;4.67;4.13;;;16.10;99.90;;;;;;5075108;28;20531;-55
2022/05/17 01:29:39;;;;;;;6.90;4.00;;;16.20;99.90;;;;;;5075385;28;20545;-55
2022/05/17 01:32:08;;;;;;;6.90;4.60;;;16.10;99.90;;;;;;5075343;28;20531;-56
2022/05/17 01:34:36;;;;;;;5.00;4.30;;;16.10;99.90;;;;;;5075225;28;20484;-56
2022/05/17 01:37:04;;;;;;;5.10;4.07;;;16.10;99.90;;;;;;5075361;28;20994;-55
2022/05/17 01:39:33;;;;;;;4.90;4.37;;;16.00;99.90;;;;;;5074824;28;20971;-55
2022/05/17 01:42:00;;;;;;;5.30;4.80;;;16.00;99.90;;;;;;5074698;28;20546;-55
2022/05/17 01:44:27;;;;;;;6.77;4.23;;;15.80;99.90;;;;;;5075237;28;20475;-55
2022/05/17 01:46:54;;;;;;;4.93;4.50;;;15.70;99.90;;;;;;5075275;28;20448;-55
2022/05/17 01:49:22;;;;;;;5.97;4.13;;;15.70;99.90;;;;;;5074967;28;20869;-56
2022/05/17 01:51:49;;;;;;;9.10;4.50;;;15.80;99.90;;;;;;5074976;28;20506;-55
2022/05/17 01:54:16;;;;;;;5.37;3.73;;;15.90;99.90;;;;;;5074857;28;20496;-55
2022/05/17 01:56:44;;;;;;;4.77;4.20;;;15.80;99.90;;;;;;5074646;28;20452;-55
2022/05/17 01:59:12;;;;;;;5.80;4.53;;;15.90;99.90;;;;;;5074411;28;20478;-55
2022/05/17 02:01:40;;;;;;;6.70;4.53;;;15.80;99.90;;;;;;5074688;28;20521;-55
2022/05/17 02:04:07;;;;;;;4.57;4.17;;;15.70;99.90;;;;;;5074688;28;20444;-55
2022/05/17 02:06:34;;;;;;;4.67;4.27;;;15.70;99.90;;;;;;5074281;28;20444;-55
2022/05/17 02:09:01;;;;;;;5.40;4.10;;;15.80;99.90;;;;;;5074722;28;20471;-55
2022/05/17 02:11:29;;;;;;;5.40;4.90;;;15.80;99.90;;;;;;5074300;28;20448;-56
2022/05/17 02:13:57;;;;;;;4.97;4.47;;;15.80;99.90;;;;;;5075005;28;20994;-55
2022/05/17 02:16:24;;;;;;;5.40;4.10;;;15.80;99.90;;;;;;5074081;28;20575;-55
2022/05/17 02:18:51;;;;;;;5.33;4.83;;;15.80;99.90;;;;;;5074379;28;20464;-55
2022/05/17 02:21:19;;;;;;;7.40;4.73;;;15.70;99.90;;;;;;5074094;28;20484;-55
2022/05/17 02:23:46;;;;;;;4.90;4.40;;;15.70;99.90;;;;;;5074347;28;20440;-55
2022/05/17 02:26:13;;;;;;;6.97;4.33;;;15.70;99.90;;;;;;5074303;28;20482;-55
2022/05/17 02:28:43;;;;;;;5.50;4.00;;;15.70;99.90;;;;;;5074167;28;20555;-55
2022/05/17 02:31:13;;;;;;;5.50;4.60;;;15.80;99.90;;;;;;5074264;28;20429;-55
2022/05/17 02:33:41;;;;;;;7.00;4.10;;;15.80;99.90;;;;;;5073868;28;20482;-55
2022/05/17 02:36:08;;;;;;;4.90;3.70;;;15.70;99.90;;;;;;5074120;28;20561;-55
2022/05/17 02:38:35;;;;;;;4.10;3.70;;;15.70;99.90;;;;;;5074038;28;20834;-56
2022/05/17 02:41:03;;;;;;;8.93;4.60;;;15.70;99.90;;;;;;5072619;28;20997;-55
2022/05/17 02:43:30;;;;;;;7.87;4.67;;;15.60;99.90;;;;;;5074196;28;20456;-55
2022/05/17 02:45:58;;;;;;;6.83;4.13;;;15.40;99.90;;;;;;5073728;28;20427;-56
2022/05/17 02:48:26;;;;;;;5.17;4.67;;;15.40;99.90;;;;;;5073572;28;20517;-55
2022/05/17 02:50:54;;;;;;;4.47;4.07;;;;;;;;;;5073592;28;20449;-55
2022/05/17 02:53:22;;;;;;;5.63;4.90;;;15.30;99.90;;;;;;5073964;28;20456;-55
2022/05/17 02:55:49;;;;;;;8.70;5.37;;;15.30;99.90;;;;;;5073762;28;20487;-55
2022/05/17 02:58:17;;;;;;;5.17;4.70;;;15.40;99.90;;;;;;5073798;28;20468;-55
2022/05/17 03:00:44;;;;;;;7.07;4.83;;;15.50;99.90;;;;;;5073967;28;20462;-55
2022/05/17 03:03:11;;;;;;;7.47;5.60;;;15.40;99.90;;;;;;5073684;28;20432;-55
2022/05/17 03:05:40;;;;;;;5.70;4.53;;;15.30;99.90;;;;;;5073838;28;20449;-55
2022/05/17 03:08:08;;;;;;;5.47;4.77;;;15.40;99.90;;;;;;5073696;28;20476;-55
2022/05/17 03:10:35;;;;;;;5.40;4.80;;;15.40;99.90;;;;;;5073759;28;20444;-55
2022/05/17 03:13:02;;;;;;;8.33;4.70;;;15.50;99.90;;;;;;5074103;28;20527;-56
2022/05/17 03:15:30;;;;;;;5.30;4.70;;;15.50;99.90;;;;;;5073406;28;20468;-55
2022/05/17 03:17:57;;;;;;;5.23;4.73;;;15.50;99.90;;;;;;5073599;28;20479;-55
2022/05/17 03:20:24;;;;;;;7.30;5.07;;;15.40;99.90;;;;;;5073680;28;20469;-56
2022/05/17 03:22:53;;;;;;;6.50;5.40;;;15.40;99.90;;;;;;5075463;28;20786;-55
2022/05/17 03:25:20;;;;;;;6.67;5.00;;;15.40;99.90;;;;;;5077793;28;20444;-55
2022/05/17 03:27:47;;;;;;;5.50;4.33;;;15.40;99.90;;;;;;5077299;28;20502;-55
2022/05/17 03:30:15;;;;;;;6.70;4.87;;;15.40;99.90;;;;;;5077689;28;20450;-55
2022/05/17 03:32:42;;;;;;;5.30;4.90;;;15.40;99.90;;;;;;5077624;28;20535;-56
2022/05/17 03:35:10;;;;;;;8.60;5.70;;;15.40;99.90;;;;;;5077550;28;20491;-55
2022/05/17 03:37:37;;;;;;;6.33;5.20;;;15.30;99.90;;;;;;5077208;28;20540;-55
2022/05/17 03:40:09;;;;;;;5.73;4.57;;;15.30;99.90;;;;;;5077007;28;20470;-55
2022/05/17 03:42:37;;;;;;;9.07;5.37;;;15.30;99.90;;;;;;5077437;28;20448;-56
2022/05/17 03:45:05;;;;;;;6.20;5.30;;;15.30;99.90;;;;;;5076942;28;20941;-55
2022/05/17 03:47:33;;;;;;;10.07;4.90;;;15.40;99.90;;;;;;5077066;28;20483;-55
2022/05/17 03:50:00;;;;;;;6.97;5.30;;;15.40;99.90;;;;;;5077221;28;20504;-55
2022/05/17 03:52:27;;;;;;;7.50;4.60;;;15.40;99.90;;;;;;5077249;28;20440;-55
2022/05/17 03:54:56;;;;;;;5.60;4.70;;;15.30;99.90;;;;;;5077135;28;20440;-55
2022/05/17 03:57:26;;;;;;;12.90;5.33;;;15.30;99.90;;;;;;5076800;28;20482;-55
2022/05/17 03:59:53;;;;;;;6.17;5.47;;;15.30;99.90;;;;;;5077029;28;20460;-55
2022/05/17 04:02:21;;;;;;;6.20;4.83;;;15.20;99.90;;;;;;5076994;28;20459;-55
2022/05/17 04:04:51;;;;;;;7.50;5.23;;;15.20;99.90;;;;;;5076934;28;20444;-55
2022/05/17 04:07:19;;;;;;;5.70;5.20;;;15.30;99.90;;;;;;5077051;28;20479;-55
2022/05/17 04:09:46;;;;;;;8.13;5.13;;;15.20;99.90;;;;;;5076612;28;20467;-55
2022/05/17 04:12:14;;;;;;;7.20;5.83;;;15.30;99.90;;;;;;5076614;28;20440;-55
2022/05/17 04:14:42;;;;;;;6.23;4.93;;;15.30;99.90;;;;;;5077083;28;20550;-55
2022/05/17 04:17:10;;;;;;;7.20;4.80;;;15.30;99.90;;;;;;5077231;28;20480;-56
2022/05/17 04:19:39;;;;;;;7.20;6.30;;;;;;;;;;5076625;28;20468;-56
2022/05/17 04:22:09;;;;;;;6.97;5.13;;;15.10;99.90;;;;;;5076402;28;20451;-56
2022/05/17 04:24:36;;;;;;;7.30;5.13;;;15.10;99.90;;;;;;5076258;28;21012;-55
2022/05/17 04:27:04;;;;;;;7.27;5.20;;;15.10;99.90;;;;;;5076521;28;20440;-55
2022/05/17 04:29:31;;;;;;;5.40;4.83;;;15.20;99.90;;;;;;5076485;28;20559;-55
2022/05/17 04:32:00;;;;;;;7.20;5.60;;;15.20;99.90;;;;;;5076464;28;20482;-55
2022/05/17 04:34:27;;;;;;;5.83;5.23;;;15.10;99.90;;;;;;5076147;28;20939;-55
2022/05/17 04:36:55;;;;;;;6.50;4.90;;;15.10;99.90;;;;;;5076026;28;20593;-56
2022/05/17 04:39:22;;;;;;;9.73;5.40;;;15.20;99.90;;;;;;5076237;28;20547;-55
2022/05/17 04:41:50;;;;;;;8.60;6.00;;;15.30;99.90;;;;;;5076049;28;20491;-55
2022/05/17 04:44:17;;;;;;;7.37;5.50;;;15.40;99.90;;;;;;5075859;28;20534;-56
2022/05/17 04:46:44;;;;;;;7.07;5.97;;;15.40;99.90;;;;;;5076111;28;20448;-55
2022/05/17 04:49:13;;;;;;;10.53;6.50;;;15.50;99.90;;;;;;5075898;28;20468;-55
2022/05/17 04:51:40;;;;;;;6.37;5.33;;;15.50;99.90;;;;;;5075713;28;20949;-55
2022/05/17 04:54:07;;;;;;;5.53;5.03;;;15.50;99.90;;;;;;5076134;28;20452;-55
2022/05/17 04:56:35;;;;;;;11.67;8.00;;;15.60;99.90;;;;;;5075666;28;20990;-55
2022/05/17 04:59:02;;;;;;;6.77;5.50;;;15.70;99.90;;;;;;5075786;28;20962;-55
2022/05/17 05:01:31;;;;;;;5.77;5.20;;;15.70;99.90;;;;;;5075906;28;20447;-55
2022/05/17 05:03:58;;;;;;;11.40;5.30;;;15.70;99.90;;;;;;5075480;28;20520;-56
2022/05/17 05:06:28;;;;;;;6.27;5.67;;;15.80;99.90;;;;;;5075849;28;20437;-55
2022/05/17 05:08:55;;;;;;;7.80;5.70;;;15.80;99.90;;;;;;5076093;28;20529;-55
2022/05/17 05:11:23;;;;;;;7.23;6.53;;;15.80;99.90;;;;;;5075726;28;20847;-55
2022/05/17 05:13:50;;;;;;;7.43;6.57;;;15.90;99.90;;;;;;5075604;28;20846;-56
2022/05/17 05:16:17;;;;;;;7.53;5.70;;;15.90;99.90;;;;;;5075804;28;20480;-55
2022/05/17 05:18:44;;;;;;;6.70;6.00;;;15.90;99.90;;;;;;5075227;28;20468;-55
2022/05/17 05:21:13;;;;;;;8.23;7.30;;;16.00;99.90;;;;;;5075202;28;20539;-57
2022/05/17 05:23:44;;;;;;;9.40;6.93;;;16.00;99.90;;;;;;5075246;28;20566;-55
2022/05/17 05:26:14;;;;;;;10.00;7.00;;;16.10;99.90;;;;;;5075498;28;20425;-55
2022/05/17 05:28:42;;;;;;;8.97;6.07;;;16.10;99.90;;;;;;5075223;28;20521;-55
2022/05/17 05:31:12;;;;;;;7.70;6.80;;;16.10;99.90;;;;;;5075330;28;20453;-56
2022/05/17 05:33:41;;;;;;;10.37;7.87;;;16.20;99.90;;;;;;5075065;28;20448;-55
2022/05/17 05:36:09;;;;;;;7.80;7.00;;;16.30;99.90;;;;;;5075284;28;20480;-59
2022/05/17 05:38:37;;;;;;;13.83;8.20;;;16.30;99.90;;;;;;5074754;28;20833;-55
2022/05/17 05:41:05;;;;;;;10.50;7.33;;;16.40;99.90;;;;;;5074720;28;20511;-55
2022/05/17 05:43:32;;;;;;;8.77;6.50;;;16.50;99.90;;;;;;5074698;28;20458;-55
2022/05/17 05:46:00;;;;;;;9.80;6.80;;;16.40;99.90;;;;;;5074328;28;20429;-56
2022/05/17 05:48:27;;;;;;;8.00;7.07;;;16.50;99.90;;;;;;5074785;28;20905;-55
2022/05/17 05:50:54;;;;;;;9.90;7.37;;;16.50;99.90;;;;;;5074881;28;20444;-55
2022/05/17 05:53:22;;;;;;;7.07;6.37;;;16.60;99.90;;;;;;5074585;28;20452;-56
2022/05/17 05:55:57;;;;;;;10.13;7.40;;;16.80;99.90;;;;;;5075026;28;20535;-55
2022/05/17 05:58:26;;;;;;;9.20;7.47;;;16.90;99.90;;;;;;5074325;28;20908;-55
2022/05/17 06:00:53;;;;;;;9.43;8.10;;;16.90;99.90;;;;;;5074590;28;20444;-55
2022/05/17 06:03:20;;;;;;;11.73;7.00;;;17.00;99.90;;;;;;5074470;28;20455;-55
2022/05/17 06:05:47;;;;;;;7.77;7.07;;;17.10;99.90;;;;;;5074209;28;20955;-55
2022/05/17 06:08:15;;;;;;;11.10;6.40;;;17.20;99.90;;;;;;5074342;28;20471;-55
2022/05/17 06:10:43;;;;;;;8.50;6.80;;;17.30;99.90;;;;;;5073857;28;20448;-55
2022/05/17 06:13:11;;;;;;;10.53;7.27;;;17.40;99.90;;;;;;5073949;28;20458;-56
2022/05/17 06:15:39;;;;;;;8.03;7.30;;;17.40;99.90;;;;;;5074287;28;20460;-55
2022/05/17 06:18:11;;;;;;;8.50;7.57;;;17.40;99.90;;;;;;5074587;28;20547;-56
2022/05/17 06:20:39;;;;;;;7.43;6.20;;;17.50;99.90;;;;;;5073871;28;20569;-55
2022/05/17 06:23:08;;;;;;;7.23;6.53;;;;;;;;;;5073871;28;20784;-56
2022/05/17 06:25:35;;;;;;;8.73;6.83;;;17.70;99.90;;;;;;5074247;28;20444;-55
2022/05/17 06:28:02;;;;;;;7.23;6.53;;;17.80;99.90;;;;;;5073792;28;20440;-56
2022/05/17 06:30:29;;;;;;;12.60;7.20;;;17.90;99.90;;;;;;5074208;28;20436;-56
2022/05/17 06:32:58;;;;;;;12.17;8.10;;;17.90;99.90;;;;;;5073797;28;20445;-55
2022/05/17 06:35:25;;;;;;;8.37;7.50;;;18.00;99.90;;;;;;5073714;28;20825;-55
2022/05/17 06:37:52;;;;;;;14.10;7.60;;;18.00;99.90;;;;;;5073925;28;20491;-55
2022/05/17 06:40:20;;;;;;;7.20;6.50;;;18.20;99.90;;;;;;5073362;28;20445;-55
2022/05/17 06:42:47;;;;;;;7.93;7.23;;;18.40;99.90;;;;;;5073953;28;20467;-55
2022/05/17 06:45:15;;;;;;;9.80;6.60;;;18.50;99.90;;;;;;5073412;28;20478;-55
2022/05/17 06:47:42;;;;;;;8.20;7.37;;;18.60;99.90;;;;;;5073843;28;20494;-55
2022/05/17 06:50:11;;;;;;;9.57;6.80;;;18.60;99.90;;;;;;5073642;28;21039;-56
2022/05/17 06:52:44;;;;;;;7.57;6.27;;;18.60;99.90;;;;;;5073531;28;20810;-55
2022/05/17 06:55:11;;;;;;;7.60;6.33;;;18.60;99.90;;;;;;5073380;28;20460;-55
2022/05/17 06:57:40;;;;;;;9.27;6.70;;;18.60;99.90;;;;;;5072207;28;20572;-55
2022/05/17 07:00:11;;;;;;;6.87;6.23;;;18.70;99.90;;;;;;5073084;28;20464;-54
2022/05/17 07:02:39;;;;;;;12.13;6.70;;;18.90;99.90;;;;;;5073518;28;20467;-56
2022/05/17 07:05:08;;;;;;;9.80;6.30;;;19.00;99.90;;;;;;5073179;28;20467;-56
2022/05/17 07:07:39;;;;;;;10.93;6.87;;;19.10;99.90;;;;;;5072997;28;20444;-56
2022/05/17 07:13:10;;;;;;;8.67;7.53;;;19.30;99.90;;;;;;5073097;28;20458;-56
2022/05/17 07:15:38;;;;;;;9.57;6.50;;;19.50;99.90;;;;;;5073572;28;20428;-57
2022/05/17 07:18:06;;;;;;;12.00;7.23;;;19.70;99.90;;;;;;5073304;28;20480;-55
2022/05/17 07:20:34;;;;;;;6.87;6.30;;;19.70;99.90;;;;;;5073279;28;20444;-55
2022/05/17 07:23:03;;;;;;;10.63;6.37;;;19.80;99.90;;;;;;5073293;28;20432;-55
2022/05/17 07:25:31;;;;;;;10.67;6.73;;;20.00;99.90;;;;;;5073124;28;20460;-55
2022/05/17 07:27:59;;;;;;;7.97;6.40;;;20.20;99.90;;;;;;5073790;28;20543;-55
2022/05/17 07:30:27;;;;;;;8.73;6.40;;;;;;;;;;5072943;28;20444;-56
2022/05/17 07:32:54;;;;;;;7.30;6.60;;;21.40;99.90;;;;;;5072755;28;20478;-56
2022/05/17 07:35:22;;;;;;;8.57;6.03;;;22.00;99.90;;;;;;5073360;28;20452;-56
2022/05/17 07:37:49;;;;;;;8.33;5.40;;;23.50;99.90;;;;;;5072882;28;20480;-56
2022/05/17 07:40:18;;;;;;;9.07;5.90;;;23.40;99.90;;;;;;5072877;28;20527;-56
2022/05/17 07:42:45;;;;;;;7.30;6.50;;;23.80;99.90;;;;;;5072637;28;20428;-56
2022/05/17 07:45:14;;;;;;;11.00;5.90;;;23.80;99.90;;;;;;5072637;28;20521;-56
2022/05/17 07:47:42;;;;;;;7.40;5.40;;;;;;;;;;5072930;28;20453;-56
2022/05/17 07:50:10;;;;;;;6.83;5.17;;;24.40;99.90;;;;;;5072975;28;20468;-56
2022/05/17 07:52:38;;;;;;;7.40;5.33;;;24.40;99.90;;;;;;5072757;28;20480;-56
2022/05/17 07:55:07;;;;;;;6.40;5.80;;;24.90;99.90;;;;;;5073081;28;20448;-56
2022/05/17 07:57:36;;;;;;;8.73;6.10;;;24.90;99.90;;;;;;5072527;28;20476;-56
2022/05/17 08:00:05;;;;;;;6.30;5.40;;;24.30;99.90;;;;;;5072734;28;20480;-57
2022/05/17 08:02:33;;;;;;;10.27;6.77;;;24.90;99.90;;;;;;5072861;28;20448;-57
2022/05/17 08:05:01;;;;;;;10.43;5.93;;;25.00;99.90;;;;;;5072942;28;20437;-57
2022/05/17 08:07:28;;;;;;;8.83;5.37;;;25.10;99.90;;;;;;5072454;28;20444;-56
2022/05/17 08:09:55;;;;;;;8.00;5.30;;;25.40;99.90;;;;;;5075875;28;20464;-56
2022/05/17 08:12:22;;;;;;;5.43;4.50;;;26.10;99.90;;;;;;5076100;28;20538;-55
2022/05/17 08:14:51;;;;;;;7.43;5.43;;;26.60;99.90;;;;;;5076702;28;20450;-56
2022/05/17 08:17:19;;;;;;;6.53;4.60;;;26.40;99.90;;;;;;5076308;28;20480;-56
2022/05/17 08:19:46;;;;;;;7.87;4.00;;;26.20;99.90;;;;;;5076027;28;20472;-56
2022/05/17 08:22:15;;;;;;;5.90;4.50;;;25.90;98.90;;;;;;5075991;28;20444;-56
2022/05/17 08:27:36;;;;;;;6.40;4.97;;;26.50;99.90;;;;;;5076261;28;20474;-57
2022/05/17 08:30:10;;;;;;;8.30;4.07;;;27.00;98.80;;;;;;5076285;28;20478;-56
2022/05/17 08:35:22;;;;;;;7.67;4.67;;;26.80;98.30;;;;;;5076350;28;20992;-55
2022/05/17 08:37:49;;;;;;;7.10;3.90;;;;;;;;;;5075908;28;20484;-56
2022/05/17 08:40:22;;;;;;;8.17;4.53;;;27.00;97.60;;;;;;5075837;28;20444;-55
2022/05/17 08:43:00;;;;;;;6.33;4.23;;;27.60;98.60;;;;;;5076037;28;20424;-56
2022/05/17 08:45:39;;;;;;;4.40;4.00;;;28.10;97.30;;;;;;5076518;28;20466;-56
2022/05/17 08:48:12;;;;;;;8.20;4.20;;;27.60;94.00;;;;;;5075902;28;20491;-56
2022/05/17 08:50:40;;;;;;;6.03;4.97;;;26.80;95.20;;;;;;5075549;28;20429;-56
2022/05/17 08:53:15;;;;;;;5.77;3.60;;;26.20;95.80;;;;;;5075621;28;20475;-56
2022/05/17 08:55:44;;;;;;;6.53;3.90;;;26.50;95.80;;;;;;5075522;28;20511;-57
2022/05/17 08:58:17;;;;;;;5.23;4.00;;;26.30;96.00;;;;;;5075579;28;20889;-57
2022/05/17 09:00:49;;;;;;;4.40;4.00;;;26.60;97.20;;;;;;5075586;28;20435;-57
2022/05/17 09:03:34;;;;;;;4.63;3.90;;;27.10;96.60;;;;;;5075734;28;20432;-56
2022/05/17 09:06:09;;;;;;;8.60;4.70;;;26.90;94.70;;;;;;5076432;28;20433;-55
2022/05/17 09:08:43;;;;;;;5.60;4.20;;;26.80;96.20;;;;;;5075367;28;20966;-56
2022/05/17 09:11:20;;;;;;;4.50;3.97;;;27.10;96.00;;;;;;5075684;28;20908;-55
2022/05/17 09:13:53;;;;;;;3.90;3.60;;;26.30;94.40;;;;;;5075333;28;20451;-56
2022/05/17 09:16:24;;;;;;;4.70;3.73;;;26.20;94.30;;;;;;5075074;28;20827;-57
2022/05/17 09:18:52;;;;;;;5.57;4.30;;;26.40;95.60;;;;;;5075160;28;20488;-57
2022/05/17 09:21:28;;;;;;;4.67;3.63;;;26.60;93.40;;;;;;5074258;28;20455;-57
2022/05/17 09:23:58;;;;;;;8.50;4.20;;;26.40;93.20;;;;;;5074895;28;20464;-56
2022/05/17 09:26:27;;;;;;;4.10;3.63;;;26.40;93.30;;;;;;5075743;28;20429;-56
2022/05/17 09:28:58;;;;;;;7.97;3.67;;;26.50;92.70;;;;;;5075010;28;20467;-57
2022/05/17 09:31:31;;;;;;;7.90;4.83;;;27.00;92.50;;;;;;5074919;28;20540;-56
2022/05/17 09:34:01;;;;;;;7.20;4.20;;;27.40;91.90;;;;;;5074942;28;20802;-57
2022/05/17 09:36:33;;;;;;;4.43;3.60;;;27.30;92.90;;;;;;5074735;28;20989;-56
2022/05/17 09:39:02;;;;;;;7.07;3.10;;;27.10;91.80;;;;;;5074916;28;20841;-56
2022/05/17 09:41:35;;;;;;;4.83;3.93;;;26.80;91.70;;;;;;5074478;28;20480;-57
2022/05/17 09:44:05;;;;;;;5.23;3.60;;;27.00;92.60;;;;;;5074796;28;20823;-56
2022/05/17 09:46:37;;;;;;;7.30;4.27;;;27.40;93.80;;;;;;5074458;28;20432;-56
2022/05/17 09:54:40;;;;;;;5.93;3.80;;;27.70;92.00;;;;;;5074524;28;20424;-56
2022/05/17 09:57:21;;;;;;;5.97;3.73;;;27.60;91.70;;;;;;5074803;28;20882;-56
2022/05/17 09:59:50;;;;;;;6.23;4.30;;;28.20;92.60;;;;;;5075150;28;20539;-56
2022/05/17 10:02:44;;;;;;;7.87;4.57;;;28.30;92.20;;;;;;5074085;28;20943;-56
2022/05/17 10:05:21;;;;;;;6.40;3.80;;;28.10;90.90;;;;;;5074110;28;20440;-58
2022/05/17 10:07:56;;;;;;;9.30;3.87;;;28.60;90.40;;;;;;5073883;28;20507;-57
2022/05/17 10:10:32;;;;;;;4.60;3.73;;;28.70;90.40;;;;;;5074183;28;20420;-57
2022/05/17 10:13:17;;;;;;;8.13;4.03;;;29.70;85.70;;;;;;5074003;28;20507;-57
2022/05/17 10:15:49;;;;;;;6.20;3.63;;;29.10;86.70;;;;;;5072159;28;20519;-57
2022/05/17 10:18:34;;;;;;;7.23;4.13;;;28.40;87.50;;;;;;5073799;28;20986;-56
2022/05/17 10:21:10;;;;;;;5.10;4.37;;;29.20;87.60;;;;;;5073821;28;20550;-56
2022/05/17 10:23:44;;;;;;;4.57;3.90;;;29.40;83.70;;;;;;5074346;28;20772;-55
2022/05/17 10:26:14;;;;;;;4.73;3.93;;;28.50;84.40;;;;;;5074078;28;20481;-56
2022/05/17 10:28:47;;;;;;;4.63;3.50;;;28.20;86.20;;;;;;5073649;28;20475;-56
2022/05/17 10:31:21;;;;;;;6.33;4.13;;;28.40;87.40;;;;;;5073249;28;20437;-57
2022/05/17 10:34:00;;;;;;;7.23;4.23;;;28.60;90.00;;;;;;5073899;28;20425;-56
2022/05/17 10:36:31;;;;;;;4.07;3.60;;;28.60;83.90;;;;;;5073566;28;20471;-58
2022/05/17 10:39:08;;;;;;;5.23;4.00;;;28.40;90.30;;;;;;5073818;28;20525;-58
2022/05/17 10:41:35;;;;;;;4.53;3.57;;;28.50;84.00;;;;;;5073618;28;20554;-57
2022/05/17 10:44:04;;;;;;;5.07;3.57;;;28.10;81.00;;;;;;5073821;28;20464;-58
2022/05/17 10:46:34;;;;;;;3.20;3.00;;;29.10;79.10;;;;;;5073589;28;20506;-58
2022/05/17 10:49:13;;;;;;;5.83;3.50;;;29.20;76.70;;;;;;5074096;28;20473;-57
2022/05/17 10:51:48;;;;;;;4.40;4.00;;;28.70;80.50;;;;;;5073595;28;20435;-58
2022/05/17 10:54:24;;;;;;;3.27;2.97;;;29.70;80.00;;;;;;5073755;28;20528;-58
2022/05/17 10:56:58;;;;;;;6.03;3.57;;;29.50;79.60;;;;;;5073411;28;20983;-58
2022/05/17 10:59:34;;;;;;;4.80;3.17;;;29.30;78.90;;;;;;5073563;28;20499;-58
2022/05/17 11:02:17;;;;;;;7.03;3.20;;;28.10;75.60;;;;;;5073617;28;20432;-56
2022/05/17 11:05:07;;;;;;;3.50;3.20;;;27.30;78.30;;;;;;5073212;28;20445;-57
2022/05/17 11:08:00;;;;;;;5.90;3.50;;;27.70;79.40;;;;;;5073152;28;20543;-57
2022/05/17 11:10:38;;;;;;;3.83;2.87;;;29.00;78.00;;;;;;5073166;28;20455;-58
2022/05/17 11:13:12;;;;;;;4.03;3.10;;;;;;;;;;5073372;28;20788;-58
2022/05/17 11:15:45;;;;;;;3.20;2.80;;;29.40;71.20;;;;;;5073392;28;20429;-57
2022/05/17 11:18:20;;;;;;;4.77;3.67;;;29.70;71.20;;;;;;5072903;28;20491;-57
2022/05/17 11:20:53;;;;;;;4.07;3.07;;;29.90;72.50;;;;;;5073051;28;20764;-56
2022/05/17 11:23:47;;;;;;;4.90;3.40;;;29.00;70.40;;;;;;5072882;28;20554;-56
2022/05/17 11:26:45;;;;;;;3.40;2.83;;;29.30;69.50;;;;;;5072727;28;20547;-56
2022/05/17 11:29:40;;;;;;;4.30;3.07;;;29.50;71.00;;;;;;5073078;28;20506;-57
2022/05/17 11:32:24;;;;;;;5.83;3.60;;;28.80;70.10;;;;;;5060663;28;20965;-56
2022/05/17 11:34:53;;;;;;;4.10;3.20;;;28.30;73.30;;;;;;5073036;28;20863;-56
2022/05/17 11:37:47;;;;;;;4.50;3.73;;;27.70;72.50;;;;;;5072684;28;20444;-55
2022/05/17 11:40:52;;;;;;;4.90;3.30;;;27.70;75.10;;;;;;5072901;28;20453;-56
2022/05/17 11:43:57;;;;;;;4.10;3.23;;;28.30;72.90;;;;;;5073445;28;20779;-56
2022/05/17 11:46:48;;;;;;;4.60;3.83;;;28.60;73.00;;;;;;5031932;28;20791;-56
2022/05/17 11:49:46;;;;;;;5.97;4.00;;;29.00;75.10;;;;;;5074187;28;20546;-57
2022/05/17 11:52:26;;;;;;;3.07;2.87;;;29.10;71.00;;;;;;5076237;28;20451;-57
2022/05/17 11:54:56;;;;;;;4.70;3.90;;;29.10;70.60;;;;;;5076647;28;20420;-56
2022/05/17 11:58:09;;;;;;;5.80;4.00;;;29.30;76.30;;;;;;5076151;28;20452;-56
2022/05/17 12:00:48;;;;;;;5.07;3.27;;;29.80;70.50;;;;;;5076260;28;20523;-57
2022/05/17 12:04:00;;;;;;;5.73;3.33;;;30.40;72.00;;;;;;5076610;28;20428;-56
2022/05/17 12:07:04;;;;;;;6.97;3.93;;;30.20;69.50;;;;;;5076180;28;20443;-56
2022/05/17 12:09:38;;;;;;;6.80;3.27;;;29.70;73.20;;;;;;5076318;28;20459;-56
2022/05/17 12:12:56;;;;;;;3.53;2.97;;;29.90;69.20;;;;;;5076534;28;20428;-56
2022/05/17 12:15:35;;;;;;;4.00;2.47;;;29.70;70.90;;;;;;5063521;28;20502;-56
2022/05/17 12:18:25;;;;;;;5.03;3.17;;;29.20;70.80;;;;;;5076300;28;20507;-56
2022/05/17 12:21:30;;;;;;;3.73;3.00;;;29.00;71.20;;;;;;5073699;28;20950;-56
2022/05/17 12:24:06;;;;;;;5.60;3.27;;;29.10;70.00;;;;;;5060420;28;20456;-56
2022/05/17 12:26:52;;;;;;;5.43;2.80;;;28.80;70.10;;;;;;5076004;28;20827;-57
2022/05/17 12:32:11;;;;;;;5.03;3.00;;;28.00;71.70;;;;;;5076341;28;20490;-56
2022/05/17 12:34:39;;;;;;;4.27;2.60;;;28.50;72.10;;;;;;5075623;28;20816;-56
2022/05/17 12:37:11;;;;;;;2.93;2.50;;;29.30;70.50;;;;;;5075893;28;20440;-56
2022/05/17 12:45:16;;;;;;;3.70;2.60;;;29.60;66.30;;;;;;5076199;28;20438;-56
2022/05/17 12:47:51;;;;;;;2.57;2.37;;;28.60;65.80;;;;;;5075873;28;20517;-56
2022/05/17 12:50:23;;;;;;;4.70;2.37;;;29.00;66.30;;;;;;5075367;28;20863;-56
2022/05/17 12:52:56;;;;;;;4.60;2.00;;;28.80;64.60;;;;;;5075793;28;20896;-57
2022/05/17 12:55:27;;;;;;;3.83;2.60;;;28.90;65.00;;;;;;5074430;28;20790;-57
2022/05/17 12:57:54;;;;;;;6.17;2.20;;;29.00;63.00;;;;;;5075266;28;20939;-57
2022/05/17 13:00:26;;;;;;;2.20;1.90;;;29.10;66.20;;;;;;5075490;28;20460;-57
2022/05/17 13:02:58;;;;;;;7.03;2.23;;;29.60;62.50;;;;;;5075552;28;20429;-57
2022/05/17 13:05:32;;;;;;;4.10;2.20;;;29.70;63.50;;;;;;5075571;28;20554;-57
2022/05/17 13:08:06;;;;;;;4.27;1.90;;;29.30;63.70;;;;;;5075198;28;20483;-56
2022/05/17 13:10:34;;;;;;;4.30;2.20;;;29.40;60.30;;;;;;5075920;28;20494;-57
2022/05/17 13:13:13;;;;;;;4.67;2.30;;;29.30;60.90;;;;;;5075120;28;20451;-57
2022/05/17 13:15:42;;;;;;;2.40;2.20;;;29.60;62.20;;;;;;5075325;28;20428;-57
2022/05/17 13:18:12;;;;;;;2.83;2.20;;;29.30;59.30;;;;;;5075781;28;20484;-56
2022/05/17 13:20:40;;;;;;;3.30;2.97;;;29.00;60.10;;;;;;5075152;28;20450;-56
2022/05/17 13:23:09;;;;;;;2.50;1.90;;;29.30;61.50;;;;;;5074775;28;20449;-56
2022/05/17 13:25:40;;;;;;;4.33;2.30;;;28.80;61.60;;;;;;5074597;28;20460;-57
2022/05/17 13:28:08;;;;;;;5.10;2.20;;;29.20;61.50;;;;;;5074673;28;20511;-57
2022/05/17 13:30:38;;;;;;;6.03;2.47;;;29.20;64.10;;;;;;5074553;28;20459;-57
2022/05/17 13:33:09;;;;;;;4.37;2.10;;;29.30;62.70;;;;;;5074585;28;20535;-57
2022/05/17 13:35:39;;;;;;;2.83;2.23;;;29.00;61.80;;;;;;5074439;28;20963;-57
2022/05/17 13:38:11;;;;;;;4.23;2.23;;;29.00;63.80;;;;;;5074438;28;20476;-57